Time;durP1;ratioP1;P1;durP2;ratioP2;P2;SDS_P1;SDS_P2;PMS_P1;PMS_P2;Temp;Humidity;BMP_temperature;BMP_pressure;BME280_temperature;BME280_humidity;BME280_pressure;Samples;Min_cycle;Max_cycle;Signal;HPM_P1;HPM_P2
2023/01/07 00:01:41;;;;;;;9.88;5.58;;;;;;;5.72;91.06;100577.20;2151717;81;20998;-83
2023/01/07 00:04:43;;;;;;;8.63;4.85;;;;;;;5.69;91.14;100587.98;2148755;81;21002;-83
2023/01/07 00:07:44;;;;;;;9.80;5.75;;;;;;;5.65;91.00;100587.02;2148948;82;21041;-80
2023/01/07 00:10:45;;;;;;;9.43;5.65;;;;;;;5.60;91.03;100588.25;2147403;81;20993;-82
2023/01/07 00:13:52;;;;;;;10.15;5.60;;;;;;;5.56;91.09;100588.12;2156496;82;21464;-82
2023/01/07 00:16:53;;;;;;;10.72;5.30;;;;;;;5.51;90.90;100584.19;2153815;81;21013;-83
2023/01/07 00:19:55;;;;;;;9.93;5.70;;;;;;;5.48;91.14;100589.69;2157468;81;21498;-81
2023/01/07 00:22:56;;;;;;;7.85;5.12;;;;;;;5.47;91.12;100585.40;2150671;81;21072;-85
2023/01/07 00:26:05;;;;;;;9.60;5.03;;;;;;;5.42;91.15;100589.70;2161199;81;20971;-80
2023/01/07 00:29:07;;;;;;;9.23;5.45;;;;;;;5.42;91.20;100587.55;2151563;81;21033;-83
2023/01/07 00:32:08;;;;;;;7.75;5.30;;;;;;;5.37;91.14;100598.44;2150903;82;20988;-82
2023/01/07 00:35:22;;;;;;;7.30;5.03;;;;;;;5.33;91.19;100599.66;2153302;81;20990;-81
2023/01/07 00:38:13;;;;;;;10.30;6.42;;;;;;;5.30;91.24;100591.52;2167442;80;21832;-83
2023/01/07 00:41:14;;;;;;;14.95;6.75;;;;;;;5.30;91.30;100586.73;2169257;81;20994;-84
2023/01/07 00:44:15;;;;;;;11.73;6.20;;;;;;;5.28;91.28;100600.00;2165888;81;21029;-82
2023/01/07 00:47:17;;;;;;;11.03;6.90;;;;;;;5.25;91.26;100602.87;2164830;81;20965;-81
2023/01/07 00:50:22;;;;;;;11.90;6.92;;;;;;;5.21;91.22;100603.23;2168043;81;21025;-83
2023/01/07 00:53:24;;;;;;;11.50;6.00;;;;;;;5.17;91.28;100604.78;2167336;81;20955;-82
2023/01/07 00:56:25;;;;;;;9.20;6.20;;;;;;;5.16;91.45;100606.23;2166331;81;20929;-83
2023/01/07 00:59:27;;;;;;;18.10;6.55;;;;;;;5.16;91.57;100606.23;2140404;81;21107;-84
2023/01/07 01:02:28;;;;;;;13.05;6.97;;;;;;;5.15;91.66;100613.30;2165029;80;20978;-84
2023/01/07 01:05:29;;;;;;;13.75;7.60;;;;;;;5.14;91.67;100619.50;2170799;81;22251;-82
2023/01/07 01:08:31;;;;;;;13.22;7.42;;;;;;;5.15;91.79;100618.56;2164544;81;21017;-83
2023/01/07 01:11:32;;;;;;;11.10;7.03;;;;;;;5.15;91.93;100619.02;2165730;81;21020;-81
2023/01/07 01:14:33;;;;;;;11.40;6.55;;;;;;;5.11;91.66;100620.22;2169379;81;21478;-84
2023/01/07 01:17:35;;;;;;;10.05;6.12;;;;;;;5.11;91.98;100632.89;2174107;81;20978;-83
2023/01/07 01:20:37;;;;;;;11.38;6.83;;;;;;;5.13;92.07;100634.10;2169434;81;20958;-81
2023/01/07 01:23:39;;;;;;;10.88;6.55;;;;;;;5.12;92.10;100634.59;2170519;81;21017;-84
2023/01/07 01:26:40;;;;;;;12.10;6.37;;;;;;;5.11;91.90;100632.06;2169356;81;21052;-83
2023/01/07 01:29:42;;;;;;;8.93;6.15;;;;;;;5.10;91.96;100623.82;2169905;81;21068;-82
2023/01/07 01:32:43;;;;;;;13.15;7.28;;;;;;;5.10;91.98;100619.39;2166138;81;20993;-82
2023/01/07 01:35:44;;;;;;;13.38;8.28;;;;;;;5.10;92.06;100611.98;2166748;81;21085;-84
2023/01/07 01:38:45;;;;;;;12.43;8.63;;;;;;;5.10;92.15;100609.35;2154387;81;20978;-83
2023/01/07 01:41:47;;;;;;;15.40;8.80;;;;;;;5.09;92.14;100605.86;2156909;81;21687;-82
2023/01/07 01:44:55;;;;;;;16.48;8.75;;;;;;;5.09;92.21;100607.66;2158121;81;20980;-81
2023/01/07 01:48:08;;;;;;;20.00;9.18;;;;;;;5.07;92.12;100605.65;2159635;81;21019;-81
2023/01/07 01:51:12;;;;;;;16.40;11.00;;;;;;;5.04;91.88;100611.98;2159827;81;21037;-83
2023/01/07 01:54:16;;;;;;;15.78;9.10;;;;;;;5.00;91.99;100610.53;2159330;81;21006;-82
2023/01/07 01:57:20;;;;;;;12.98;7.78;;;;;;;4.98;92.02;100611.11;2161343;81;20993;-84
2023/01/07 02:00:22;;;;;;;11.22;6.45;;;;;;;4.93;92.01;100620.70;2160412;81;21025;-82
2023/01/07 02:03:26;;;;;;;13.45;6.50;;;;;;;4.90;91.94;100611.73;2161433;81;21124;-82
2023/01/07 02:06:31;;;;;;;9.83;6.70;;;;;;;4.89;91.98;100608.72;2156641;81;21013;-82
2023/01/07 02:09:33;;;;;;;11.65;7.08;;;;;;;4.86;92.15;100608.96;2154695;81;21015;-81
2023/01/07 02:12:45;;;;;;;13.28;7.40;;;;;;;4.87;92.26;100604.08;2161513;81;20977;-85
2023/01/07 02:16:11;;;;;;;15.75;8.73;;;;;;;4.88;92.25;100605.74;2160841;81;21073;-85
2023/01/07 02:19:27;;;;;;;21.20;10.85;;;;;;;4.85;92.14;100597.27;2156761;81;21614;-83
2023/01/07 02:22:52;;;;;;;16.27;9.00;;;;;;;4.81;92.17;100597.12;2156401;81;21069;-81
2023/01/07 02:26:38;;;;;;;13.35;8.50;;;;;;;4.77;92.14;100595.21;2137379;81;21533;-82
2023/01/07 02:30:03;;;;;;;13.75;8.18;;;;;;;4.72;91.87;100588.15;2155245;81;20979;-81
2023/01/07 02:33:22;;;;;;;15.98;9.68;;;;;;;4.64;91.90;100582.64;2150891;81;20990;-85
2023/01/07 02:36:50;;;;;;;13.98;8.93;;;;;;;4.61;91.94;100581.08;2144579;81;21520;-81
2023/01/07 02:40:03;;;;;;;13.40;8.23;;;;;;;4.61;92.17;100578.45;2152953;81;21555;-83
2023/01/07 02:43:37;;;;;;;15.13;9.53;;;;;;;4.60;92.19;100579.90;2159809;81;20981;-83
2023/01/07 02:47:11;;;;;;;16.60;10.32;;;;;;;4.61;92.31;100580.25;2158708;81;21085;-80
2023/01/07 02:50:13;;;;;;;16.45;10.60;;;;;;;4.62;92.41;100585.41;2153752;81;21011;-82
2023/01/07 02:53:17;;;;;;;15.15;9.90;;;;;;;4.59;92.43;100580.83;2158214;81;20953;-83
2023/01/07 02:56:58;;;;;;;18.48;11.88;;;;;;;4.57;92.30;100593.28;2153233;81;21044;-83
2023/01/07 03:00:24;;;;;;;;;;;;;;;4.54;92.31;100590.41;2156868;81;21063;-82
2023/01/07 03:03:58;;;;;;;16.77;9.58;;;;;;;4.52;92.52;100588.84;2162327;81;20107;-80
2023/01/07 03:07:23;;;;;;;14.25;9.55;;;;;;;4.44;92.34;100594.19;2149761;81;21485;-83
2023/01/07 03:10:45;;;;;;;12.15;8.35;;;;;;;4.41;92.27;100587.02;2159787;81;21037;-83
2023/01/07 03:13:52;;;;;;;13.43;9.03;;;;;;;4.36;92.21;100591.77;2148264;81;21469;-83
2023/01/07 03:16:59;;;;;;;17.57;10.50;;;;;;;4.32;92.31;100585.92;2157166;81;21041;-84
2023/01/07 03:20:03;;;;;;;14.87;9.25;;;;;;;4.28;92.36;100581.86;2161933;81;21068;-86
2023/01/07 03:23:09;;;;;;;12.95;8.60;;;;;;;4.22;92.35;100584.92;2157259;81;21581;-84
2023/01/07 03:26:11;;;;;;;11.40;7.35;;;;;;;4.17;92.35;100581.34;2160595;81;21033;-81
2023/01/07 03:29:15;;;;;;;10.28;7.25;;;;;;;4.12;92.20;100581.33;2162264;81;21045;-84
2023/01/07 03:32:22;;;;;;;9.43;7.15;;;;;;;4.08;92.16;100590.37;2151067;81;21049;-83
2023/01/07 03:35:25;;;;;;;9.58;6.62;;;;;;;4.03;92.06;100591.55;2149128;81;21037;-84
2023/01/07 03:38:27;;;;;;;10.55;7.35;;;;;;;3.95;91.90;100586.03;2160439;81;21001;-84
2023/01/07 03:44:50;;;;;;;10.15;7.30;;;;;;;3.87;92.20;100579.67;2166958;81;21013;-81
2023/01/07 03:47:55;;;;;;;10.75;7.17;;;;;;;3.86;92.28;100580.14;2166609;81;20982;-83
2023/01/07 03:50:57;;;;;;;13.60;7.15;;;;;;;3.82;92.20;100575.58;2172834;81;21081;-82
2023/01/07 03:53:58;;;;;;;10.15;6.33;;;;;;;3.81;92.25;100575.70;2164633;81;21005;-84
2023/01/07 03:57:00;;;;;;;11.88;6.37;;;;;;;3.77;92.27;100576.86;2166275;81;21028;-82
2023/01/07 04:00:04;;;;;;;12.93;7.95;;;;;;;3.75;92.43;100576.16;2153990;81;20990;-84
2023/01/07 04:03:07;;;;;;;11.05;6.92;;;;;;;3.75;92.54;100574.36;2167559;81;21102;-82
2023/01/07 04:06:10;;;;;;;12.18;7.25;;;;;;;3.72;92.34;100569.34;2165817;81;21002;-83
2023/01/07 04:09:17;;;;;;;9.15;6.97;;;;;;;3.71;92.36;100581.25;2159032;81;20983;-83
2023/01/07 04:12:19;;;;;;;9.43;7.22;;;;;;;3.71;92.42;100577.31;2164203;81;21087;-83
2023/01/07 04:15:21;;;;;;;14.35;6.20;;;;;;;3.70;92.44;100575.65;2168439;81;21004;-82
2023/01/07 04:18:22;;;;;;;9.33;5.83;;;;;;;3.63;91.97;100574.41;2167785;81;20957;-84
2023/01/07 04:21:23;;;;;;;9.68;6.05;;;;;;;3.52;91.86;100576.03;2158015;81;21880;-84
2023/01/07 04:24:24;;;;;;;10.32;7.70;;;;;;;3.48;92.04;100579.81;2170252;81;20998;-85
2023/01/07 04:27:28;;;;;;;11.30;8.18;;;;;;;3.46;92.33;100581.70;2173158;81;21049;-83
2023/01/07 04:30:30;;;;;;;11.80;7.92;;;;;;;3.48;92.61;100576.34;2165180;81;21036;-84
2023/01/07 04:33:31;;;;;;;8.85;6.35;;;;;;;3.52;92.76;100589.16;2168606;81;20997;-82
2023/01/07 04:36:33;;;;;;;13.95;7.83;;;;;;;3.54;92.79;100574.11;2171749;81;21037;-85
2023/01/07 04:39:34;;;;;;;8.70;6.83;;;;;;;3.54;92.76;100572.80;2139425;81;21123;-84
2023/01/07 04:42:36;;;;;;;7.58;5.45;;;;;;;3.54;92.66;100578.53;2138257;81;21057;-84
2023/01/07 04:45:38;;;;;;;7.67;5.12;;;;;;;3.50;92.35;100580.55;2124525;81;21069;-83
2023/01/07 04:48:39;;;;;;;9.98;5.80;;;;;;;3.39;92.03;100579.16;2127206;81;20994;-83
2023/01/07 04:51:41;;;;;;;8.93;5.72;;;;;;;3.36;92.19;100572.83;2130874;81;21128;-85
2023/01/07 04:54:43;;;;;;;8.35;5.72;;;;;;;3.36;92.31;100575.45;2126687;81;21021;-82
2023/01/07 04:57:44;;;;;;;8.30;5.70;;;;;;;3.35;92.29;100582.94;2140506;81;22352;-85
2023/01/07 05:00:48;;;;;;;11.33;5.90;;;;;;;3.34;92.26;100583.41;2127097;81;21037;-84
2023/01/07 05:03:50;;;;;;;8.45;6.20;;;;;;;3.31;92.31;100585.42;2131335;81;21520;-81
2023/01/07 05:06:51;;;;;;;10.30;6.53;;;;;;;3.28;92.15;100588.27;2123995;81;21033;-83
2023/01/07 05:09:53;;;;;;;10.98;7.25;;;;;;;3.21;92.08;100583.94;2135728;81;21025;-82
2023/01/07 05:12:54;;;;;;;13.28;6.85;;;;;;;3.17;92.03;100584.25;2142403;81;21006;-82
2023/01/07 05:15:57;;;;;;;11.50;7.25;;;;;;;3.07;91.91;100580.97;2126455;81;21485;-81
2023/01/07 05:18:59;;;;;;;7.78;5.90;;;;;;;2.97;91.86;100583.85;2130604;81;21028;-82
2023/01/07 05:22:00;;;;;;;12.45;7.05;;;;;;;2.89;91.62;100578.30;2127376;81;20938;-81
2023/01/07 05:25:03;;;;;;;8.73;6.33;;;;;;;2.85;91.67;100583.41;2134842;81;21032;-82
2023/01/07 05:28:04;;;;;;;10.80;7.35;;;;;;;2.81;91.75;100579.30;2127039;81;21001;-82
2023/01/07 05:31:07;;;;;;;10.08;6.90;;;;;;;2.78;91.71;100578.20;2128283;81;21092;-82
2023/01/07 05:34:09;;;;;;;9.80;6.70;;;;;;;2.74;91.77;100574.12;2134912;81;21074;-82
2023/01/07 05:37:10;;;;;;;28.67;8.13;;;;;;;2.74;91.84;100580.68;2138975;81;21033;-83
2023/01/07 05:40:13;;;;;;;106.52;7.85;;;;;;;2.71;91.67;100577.80;2169044;81;21063;-83
2023/01/07 05:43:15;;;;;;;63.52;5.78;;;;;;;2.66;91.40;100580.72;2171580;81;20985;-83
2023/01/07 05:46:16;;;;;;;17.12;5.22;;;;;;;2.61;91.24;100579.36;2160551;81;21013;-82
2023/01/07 05:49:17;;;;;;;52.98;6.40;;;;;;;2.48;91.22;100583.30;2170400;81;20919;-82
2023/01/07 05:52:18;;;;;;;10.35;6.03;;;;;;;2.38;91.38;100580.91;2167864;81;21029;-83
2023/01/07 05:55:20;;;;;;;22.55;13.28;;;;;;;2.24;91.43;100579.21;2169675;81;21025;-82
2023/01/07 05:58:21;;;;;;;32.70;18.75;;;;;;;2.15;91.79;100584.59;2170566;81;20949;-83
2023/01/07 06:01:22;;;;;;;29.60;16.35;;;;;;;2.14;92.06;100584.68;2170676;81;20974;-84
2023/01/07 06:04:23;;;;;;;28.38;14.78;;;;;;;2.10;92.16;100577.98;2163167;81;20988;-85
2023/01/07 06:07:24;;;;;;;30.50;14.30;;;;;;;2.04;92.15;100583.63;2170081;81;20970;-83
2023/01/07 06:10:26;;;;;;;50.48;19.12;;;;;;;2.01;92.15;100585.50;2164123;81;21065;-82
2023/01/07 06:13:27;;;;;;;15.65;7.80;;;;;;;2.02;92.31;100588.95;2172298;81;21029;-82
2023/01/07 06:16:28;;;;;;;12.10;6.72;;;;;;;2.01;92.12;100602.51;2161039;81;21544;-84
2023/01/07 06:19:30;;;;;;;15.30;8.55;;;;;;;1.96;91.87;100601.12;2167092;81;20962;-83
2023/01/07 06:22:31;;;;;;;13.78;8.58;;;;;;;1.95;91.92;100600.77;2162193;81;21039;-84
2023/01/07 06:25:32;;;;;;;549.25;27.10;;;;;;;1.94;91.75;100596.45;2161256;81;21009;-83
2023/01/07 06:28:33;;;;;;;18.98;9.55;;;;;;;1.95;91.89;100595.54;2166616;81;21047;-83
2023/01/07 06:31:34;;;;;;;15.53;8.50;;;;;;;2.00;92.12;100592.16;2167156;81;20973;-81
2023/01/07 06:34:36;;;;;;;12.20;7.00;;;;;;;2.00;92.12;100597.39;2168211;81;20973;-83
2023/01/07 06:37:38;;;;;;;13.43;6.53;;;;;;;1.97;91.83;100605.41;2161329;81;20986;-84
2023/01/07 06:40:39;;;;;;;9.63;5.00;;;;;;;1.86;91.57;100606.58;2174829;81;21036;-82
2023/01/07 06:43:40;;;;;;;9.73;6.35;;;;;;;1.77;91.41;100610.19;2170949;81;20966;-83
2023/01/07 06:46:41;;;;;;;11.78;7.20;;;;;;;1.63;91.44;100610.20;2165690;81;21060;-82
2023/01/07 06:49:43;;;;;;;45.05;25.32;;;;;;;1.62;91.89;100607.70;2165243;80;21044;-84
2023/01/07 06:52:44;;;;;;;60.38;32.85;;;;;;;1.64;92.31;100611.06;2167395;81;21061;-83
2023/01/07 06:55:49;;;;;;;36.23;21.02;;;;;;;1.69;92.55;100605.91;2158776;81;21005;-82
2023/01/07 06:58:51;;;;;;;20.57;14.28;;;;;;;1.74;92.59;100608.21;2167898;81;20973;-82
2023/01/07 07:01:52;;;;;;;18.37;12.37;;;;;;;1.76;92.48;100605.88;2165971;81;21066;-80
2023/01/07 07:04:54;;;;;;;22.62;16.70;;;;;;;1.80;92.46;100615.66;2168430;81;20955;-81
2023/01/07 07:07:55;;;;;;;31.80;20.12;;;;;;;1.83;92.40;100614.19;2169968;81;21080;-81
2023/01/07 07:10:56;;;;;;;45.52;30.00;;;;;;;1.89;92.52;100613.78;2168296;81;20977;-82
2023/01/07 07:13:58;;;;;;;49.60;32.28;;;;;;;1.88;92.34;100612.09;2169065;81;20992;-79
2023/01/07 07:16:59;;;;;;;32.78;21.80;;;;;;;1.93;92.55;100615.73;2173595;81;21005;-79
2023/01/07 07:20:01;;;;;;;42.93;29.05;;;;;;;1.96;92.48;100602.44;2173026;81;21496;-82
2023/01/07 07:23:02;;;;;;;68.15;39.25;;;;;;;1.98;92.38;100605.80;2161412;81;21082;-84
2023/01/07 07:26:04;;;;;;;64.80;38.98;;;;;;;2.05;92.65;100612.30;2170935;81;20946;-82
2023/01/07 07:29:05;;;;;;;78.60;40.83;;;;;;;2.12;92.87;100610.98;2167358;81;21104;-81
2023/01/07 07:32:07;;;;;;;58.28;30.50;;;;;;;2.21;93.02;100608.22;2164207;81;20975;-82
2023/01/07 07:35:10;;;;;;;23.12;13.18;;;;;;;2.22;92.78;100613.37;2162503;81;21077;-82
2023/01/07 07:38:12;;;;;;;40.30;18.73;;;;;;;2.16;92.26;100614.23;2168753;81;21033;-81
2023/01/07 07:41:13;;;;;;;31.20;18.98;;;;;;;2.14;92.32;100616.09;2160152;81;21053;-83
2023/01/07 07:44:15;;;;;;;24.37;13.15;;;;;;;2.13;92.67;100610.02;2165775;81;21017;-83
2023/01/07 07:47:16;;;;;;;31.27;17.40;;;;;;;2.13;92.74;100603.95;2145003;81;20973;-84
2023/01/07 07:50:17;;;;;;;32.60;21.10;;;;;;;2.18;93.06;100601.41;2168437;81;21041;-82
2023/01/07 07:53:19;;;;;;;34.58;18.48;;;;;;;2.26;93.31;100594.84;2160183;81;21927;-83
2023/01/07 07:56:21;;;;;;;23.35;14.20;;;;;;;2.32;93.54;100590.02;2162680;81;21069;-83
2023/01/07 07:59:23;;;;;;;25.25;14.68;;;;;;;2.36;93.46;100586.72;2166665;81;21261;-84
2023/01/07 08:02:24;;;;;;;24.70;14.78;;;;;;;2.36;93.37;100586.23;2164834;81;21478;-86
2023/01/07 08:05:26;;;;;;;26.55;17.15;;;;;;;2.43;93.72;100590.14;2170561;81;21039;-83
2023/01/07 08:08:28;;;;;;;29.27;17.98;;;;;;;2.55;94.08;100591.56;2164094;81;21006;-85
2023/01/07 08:11:29;;;;;;;29.87;19.05;;;;;;;2.68;94.30;100591.11;2164626;81;21332;-82
2023/01/07 08:14:31;;;;;;;28.40;18.02;;;;;;;2.80;94.44;100595.98;2166490;81;21484;-86
2023/01/07 08:17:33;;;;;;;30.80;20.32;;;;;;;2.93;94.61;100588.95;2171500;81;21556;-85
2023/01/07 08:20:36;;;;;;;28.67;19.52;;;;;;;3.05;94.61;100586.78;2171521;81;21045;-82
2023/01/07 08:23:37;;;;;;;31.60;19.48;;;;;;;3.16;94.69;100594.38;2165689;81;21037;-85
2023/01/07 08:26:38;;;;;;;30.62;19.20;;;;;;;3.27;94.76;100590.05;2164992;81;21500;-84
2023/01/07 08:29:39;;;;;;;27.13;19.40;;;;;;;3.36;94.84;100585.94;2168155;81;21428;-84
2023/01/07 08:32:41;;;;;;;31.80;19.42;;;;;;;3.48;94.93;100596.86;2167596;81;21026;-85
2023/01/07 08:35:44;;;;;;;29.98;19.52;;;;;;;3.57;95.03;100587.01;2166805;81;21053;-83
2023/01/07 08:38:51;;;;;;;37.05;22.48;;;;;;;3.69;95.11;100585.77;2170169;80;21077;-82
2023/01/07 08:41:53;;;;;;;34.27;21.80;;;;;;;3.78;95.09;100577.24;2173300;81;21025;-81
2023/01/07 08:44:55;;;;;;;47.73;24.52;;;;;;;3.90;95.14;100583.38;2167526;81;21057;-83
2023/01/07 08:47:57;;;;;;;59.53;29.85;;;;;;;3.99;95.20;100587.47;2165534;81;20994;-81
2023/01/07 08:50:58;;;;;;;56.88;30.52;;;;;;;4.11;95.24;100585.75;2167617;81;20988;-82
2023/01/07 08:53:59;;;;;;;68.17;33.98;;;;;;;4.19;95.27;100594.34;2166155;81;21437;-83
2023/01/07 08:57:00;;;;;;;89.30;40.25;;;;;;;4.25;95.14;100593.44;2166143;81;21029;-83
2023/01/07 09:00:04;;;;;;;87.30;40.15;;;;;;;4.30;95.08;100587.81;2167027;81;21441;-83
2023/01/07 09:03:07;;;;;;;74.12;36.50;;;;;;;4.34;95.09;100595.84;2163380;81;21454;-82
2023/01/07 09:06:11;;;;;;;67.65;35.10;;;;;;;4.40;95.15;100597.17;2166541;81;21041;-84
2023/01/07 09:09:15;;;;;;;63.63;32.85;;;;;;;4.45;95.20;100598.51;2163022;81;21028;-82
2023/01/07 09:12:15;;;;;;;72.20;34.30;;;;;;;4.47;95.07;100599.20;2165009;81;21548;-82
2023/01/07 09:15:17;;;;;;;59.38;31.55;;;;;;;4.53;95.18;100599.70;2167913;81;20922;-82
2023/01/07 09:18:20;;;;;;;41.42;23.98;;;;;;;4.60;95.31;100600.92;2163412;81;20992;-83
2023/01/07 09:21:21;;;;;;;62.55;40.25;;;;;;;4.68;95.59;100605.95;2169605;81;21001;-85
2023/01/07 09:24:22;;;;;;;64.80;39.38;;;;;;;4.72;95.60;100615.75;2171705;81;21527;-86
2023/01/07 09:27:25;;;;;;;89.97;44.60;;;;;;;4.80;95.66;100616.49;2168811;81;21021;-83
2023/01/07 09:30:27;;;;;;;73.05;36.33;;;;;;;4.85;95.59;100615.19;2165299;81;21029;-83
2023/01/07 09:33:28;;;;;;;57.27;31.15;;;;;;;4.92;95.53;100610.28;2165525;81;21062;-84
2023/01/07 09:36:30;;;;;;;44.05;25.50;;;;;;;5.01;95.55;100613.98;2167617;81;21013;-84
2023/01/07 09:39:31;;;;;;;48.23;26.48;;;;;;;5.06;95.43;100613.99;2164219;81;21044;-85
2023/01/07 09:42:41;;;;;;;41.70;25.55;;;;;;;5.16;95.57;100614.13;2154054;81;20990;-87
2023/01/07 09:45:56;;;;;;;30.23;19.42;;;;;;;5.25;95.64;100616.03;2158199;81;21053;-86
2023/01/07 09:49:03;;;;;;;26.17;19.12;;;;;;;5.34;95.46;100621.05;2160830;81;21560;-86
2023/01/07 09:52:09;;;;;;;27.10;18.80;;;;;;;5.41;95.44;100607.78;2151372;81;21440;-83
2023/01/07 09:55:25;;;;;;;27.05;17.90;;;;;;;5.51;95.43;100607.39;2152961;81;20990;-86
2023/01/07 09:58:26;;;;;;;33.20;20.85;;;;;;;5.57;95.20;100606.06;2159526;81;21494;-86
2023/01/07 10:01:47;;;;;;;33.73;21.70;;;;;;;5.57;95.07;100604.26;2150306;81;20962;-85
2023/01/07 10:05:33;;;;;;;30.10;21.20;;;;;;;5.59;95.12;100601.03;2113482;81;21513;-86
2023/01/07 10:08:52;;;;;;;30.25;20.02;;;;;;;5.61;95.13;100592.54;2159823;81;20967;-85
2023/01/07 10:12:40;;;;;;;31.52;21.65;;;;;;;5.66;95.34;100581.65;2157892;81;21052;-85
2023/01/07 10:16:02;;;;;;;35.52;23.98;;;;;;;5.76;95.67;100579.09;2149323;81;20973;-84
2023/01/07 10:19:27;;;;;;;28.90;19.70;;;;;;;6.06;96.23;100585.02;2157170;81;20997;-81
2023/01/07 10:22:39;;;;;;;27.95;19.85;;;;;;;6.23;96.10;100568.64;2132353;81;21032;-86
2023/01/07 10:25:47;;;;;;;31.93;22.82;;;;;;;6.36;95.96;100567.12;2147669;81;21014;-84
2023/01/07 10:28:57;;;;;;;35.60;24.30;;;;;;;6.50;95.81;100565.96;2155905;81;21528;-84
2023/01/07 10:32:12;;;;;;;26.82;20.90;;;;;;;6.63;95.86;100563.97;2155641;81;21734;-83
2023/01/07 10:35:19;;;;;;;30.37;20.43;;;;;;;6.78;95.72;100552.58;2153347;81;21019;-86
2023/01/07 10:38:20;;;;;;;28.60;20.48;;;;;;;6.86;95.51;100547.98;2162941;81;21014;-85
2023/01/07 10:41:26;;;;;;;28.50;21.07;;;;;;;6.92;95.44;100552.22;2170047;81;21088;-86
2023/01/07 10:44:50;;;;;;;30.45;22.48;;;;;;;6.96;95.30;100548.86;2163453;81;21053;-83
2023/01/07 10:48:12;;;;;;;30.25;22.10;;;;;;;7.00;95.00;100550.74;2166964;81;21524;-89
2023/01/07 10:51:51;;;;;;;27.30;20.65;;;;;;;7.03;94.95;100552.63;2173102;81;21053;-84
2023/01/07 10:55:10;;;;;;;33.30;24.10;;;;;;;7.07;94.82;100552.72;2169717;81;21009;-83
2023/01/07 10:58:12;;;;;;;30.80;21.75;;;;;;;7.14;94.77;100542.45;2166983;81;20962;-84
2023/01/07 11:01:30;;;;;;;28.77;21.73;;;;;;;7.23;94.74;100532.89;2168473;81;21061;-83
2023/01/07 11:04:32;;;;;;;29.23;21.07;;;;;;;7.28;94.51;100526.73;2166641;81;21049;-85
2023/01/07 11:07:46;;;;;;;31.12;23.45;;;;;;;7.36;94.45;100522.44;2166071;81;21655;-82
2023/01/07 11:10:48;;;;;;;30.57;20.55;;;;;;;7.40;94.15;100519.03;2161426;81;20970;-82
2023/01/07 11:14:00;;;;;;;28.70;20.37;;;;;;;7.48;94.22;100517.87;2169094;81;21551;-83
2023/01/07 11:17:34;;;;;;;30.25;20.48;;;;;;;7.54;93.89;100507.23;2175322;80;21052;-83
2023/01/07 11:20:49;;;;;;;24.67;19.12;;;;;;;7.55;93.74;100502.33;2124226;82;21532;-82
2023/01/07 11:23:50;;;;;;;23.55;17.02;;;;;;;7.59;93.68;100501.89;2159931;81;21036;-83
2023/01/07 11:27:01;;;;;;;25.45;17.32;;;;;;;7.63;93.70;100496.70;2164352;81;20954;-83
2023/01/07 11:30:09;;;;;;;21.93;16.95;;;;;;;7.74;93.70;100489.59;2165966;81;21049;-82
2023/01/07 11:33:25;;;;;;;19.62;15.55;;;;;;;7.92;93.67;100488.42;2138799;81;21672;-82
2023/01/07 11:36:42;;;;;;;21.05;16.12;;;;;;;8.01;93.26;100480.97;2164017;81;21003;-85
2023/01/07 11:39:47;;;;;;;19.40;15.15;;;;;;;8.25;93.59;100475.20;2173276;81;21058;-84
2023/01/07 11:42:58;;;;;;;22.02;15.68;;;;;;;8.41;92.98;100471.50;2152866;81;21028;-85
2023/01/07 11:46:03;;;;;;;26.68;19.27;;;;;;;8.47;92.29;100476.70;2180079;81;20973;-81
2023/01/07 11:49:04;;;;;;;24.25;16.85;;;;;;;8.60;92.43;100459.20;2176588;81;20970;-81
2023/01/07 11:52:10;;;;;;;22.65;15.40;;;;;;;8.72;92.32;100456.70;2178511;81;21083;-82
2023/01/07 11:55:17;;;;;;;22.10;15.68;;;;;;;8.79;91.70;100447.70;2178824;81;21579;-83
2023/01/07 11:58:19;;;;;;;21.62;16.05;;;;;;;8.77;91.41;100447.84;2180159;81;20996;-86
2023/01/07 12:01:22;;;;;;;28.47;18.90;;;;;;;9.18;92.37;100440.37;2183408;81;21076;-86
2023/01/07 12:04:35;;;;;;;29.12;21.27;;;;;;;9.18;92.37;100440.37;2176876;81;21578;-84
2023/01/07 12:07:37;;;;;;;27.22;19.92;;;;;;;9.43;92.59;100438.77;2180195;81;20978;-85
2023/01/07 12:10:38;;;;;;;29.92;17.90;;;;;;;9.69;92.95;100425.60;2174908;81;21543;-84
2023/01/07 12:13:46;;;;;;;23.00;16.20;;;;;;;10.12;92.31;100445.62;2180607;81;21045;-85
2023/01/07 12:16:49;;;;;;;24.00;16.07;;;;;;;10.34;91.47;100439.83;2173593;81;20993;-84
2023/01/07 12:20:25;;;;;;;19.12;14.20;;;;;;;10.67;91.54;100432.86;2179091;81;21057;-83
2023/01/07 12:23:31;;;;;;;18.25;12.95;;;;;;;10.88;90.62;100432.42;2170369;81;20942;-85
2023/01/07 12:26:53;;;;;;;19.02;12.53;;;;;;;10.94;89.40;100422.98;2183303;81;21533;-82
2023/01/07 12:30:25;;;;;;;16.05;10.65;;;;;;;10.89;88.85;100422.63;2182293;81;21024;-84
2023/01/07 12:34:01;;;;;;;13.75;10.45;;;;;;;11.21;89.38;100423.23;2177069;80;22371;-83
2023/01/07 12:37:19;;;;;;;14.68;10.18;;;;;;;11.43;88.37;100419.08;2159419;81;21538;-83
2023/01/07 12:40:52;;;;;;;16.10;11.63;;;;;;;11.77;88.42;100416.28;2171951;81;21057;-83
2023/01/07 12:44:05;;;;;;;16.97;10.20;;;;;;;11.97;87.42;100422.11;2171589;81;21000;-83
2023/01/07 12:47:14;;;;;;;13.50;9.83;;;;;;;12.08;86.90;100416.44;2171790;81;21013;-84
2023/01/07 12:50:21;;;;;;;12.70;10.10;;;;;;;12.03;85.15;100409.97;2167096;81;21038;-83
2023/01/07 12:53:31;;;;;;;15.25;9.75;;;;;;;11.84;84.59;100406.63;2166173;81;21065;-84
2023/01/07 12:56:44;;;;;;;10.15;8.20;;;;;;;11.59;84.41;100404.48;2166691;81;21024;-84
2023/01/07 12:59:59;;;;;;;10.85;8.05;;;;;;;11.36;83.78;100409.63;2164122;81;21027;-85
2023/01/07 13:03:25;;;;;;;7.62;6.83;;;;;;;11.20;83.68;100403.78;2152804;81;21630;-84
2023/01/07 13:06:44;;;;;;;11.50;8.70;;;;;;;10.98;83.19;100405.25;2160135;81;21020;-84
2023/01/07 13:10:07;;;;;;;11.43;9.18;;;;;;;10.89;83.34;100401.39;2172366;81;20993;-84
2023/01/07 13:13:25;;;;;;;11.05;9.03;;;;;;;10.73;83.16;100403.02;2160396;81;21045;-86
2023/01/07 13:16:26;;;;;;;10.53;7.83;;;;;;;10.70;83.50;100396.71;2167650;80;21017;-85
2023/01/07 13:19:28;;;;;;;11.70;8.50;;;;;;;10.66;83.29;100386.06;2168684;81;20973;-86
2023/01/07 13:22:46;;;;;;;12.35;9.18;;;;;;;10.59;83.03;100385.06;2166508;81;21017;-86
2023/01/07 13:26:12;;;;;;;18.60;10.20;;;;;;;10.47;82.79;100379.22;2171972;81;20989;-85
2023/01/07 13:29:40;;;;;;;12.28;9.83;;;;;;;10.34;82.65;100377.49;2168131;81;21001;-85
2023/01/07 13:33:20;;;;;;;11.30;8.73;;;;;;;10.25;82.66;100374.44;2160578;81;21486;-85
2023/01/07 13:36:57;;;;;;;16.00;9.47;;;;;;;10.21;82.63;100379.20;2165585;81;21495;-85
2023/01/07 13:40:07;;;;;;;11.20;8.20;;;;;;;10.16;82.50;100366.09;2159004;81;21000;-84
2023/01/07 13:43:23;;;;;;;7.90;5.67;;;;;;;10.10;82.33;100368.38;2149651;81;21058;-82
2023/01/07 13:46:38;;;;;;;8.38;6.10;;;;;;;10.00;81.89;100365.52;2149745;81;21091;-85
2023/01/07 13:49:41;;;;;;;7.42;6.10;;;;;;;9.84;81.28;100363.59;2163168;81;21045;-87
2023/01/07 13:52:44;;;;;;;7.87;6.42;;;;;;;9.67;81.80;100365.30;2153873;81;20998;-86
2023/01/07 13:55:47;;;;;;;10.50;7.58;;;;;;;9.53;81.91;100367.19;2153904;81;21518;-86
2023/01/07 13:58:56;;;;;;;9.10;7.17;;;;;;;9.45;81.90;100371.09;2150194;81;21020;-85
2023/01/07 14:02:22;;;;;;;8.18;6.35;;;;;;;9.34;81.87;100369.01;2154993;81;20978;-89
2023/01/07 14:05:27;;;;;;;11.78;6.97;;;;;;;9.24;81.99;100364.30;2154272;81;21039;-88
2023/01/07 14:08:29;;;;;;;9.70;7.45;;;;;;;9.17;82.24;100365.38;2155682;81;21619;-85
2023/01/07 14:11:37;;;;;;;9.18;7.17;;;;;;;9.12;82.18;100368.14;2159333;81;20974;-84
2023/01/07 14:15:08;;;;;;;8.30;6.37;;;;;;;9.09;82.40;100377.71;2158787;81;20986;-85
2023/01/07 14:18:22;;;;;;;;;;;;;;;9.04;82.64;100370.70;2159507;81;21036;-87
2023/01/07 14:22:01;;;;;;;8.85;7.03;;;;;;;8.96;82.44;100376.78;2156383;81;20159;-85
2023/01/07 14:25:27;;;;;;;8.68;7.00;;;;;;;8.77;82.65;100370.28;2149296;81;20976;-84
2023/01/07 14:29:18;;;;;;;11.65;8.55;;;;;;;8.62;82.52;100377.41;2157414;81;21517;-85
2023/01/07 14:32:35;;;;;;;14.15;10.03;;;;;;;8.62;82.52;100377.41;2153175;81;21054;-86